• Join FlightAware (Why Join?)
  • Login
  • US Flag 
02:43PM EDT


 

Airport Tracker/Info


-or-


 

Live Flight TrackerFlight Track Log ✈ N946RM ✈ 19-Mar-2014 ✈ KBHM - KDAB

Flight Track Log - Related Links

Times and Time Zones

All times are in EDT time to prevent confusion due to time zone crossing. See the N946RM flight status page for this flight to view local times or setup timezone preferences in your user account.

Time Position Orientation Groundspeed Altitude Reporting Facility
EDT Latitude Longitude Course Direction KTS MPH feet Rate Location/Type
06:55AM 33.5572 -86.7708 230° Southwest 141 162 1,600  Level Atlanta Center
06:55AM 33.5486 -86.7831 230° Southwest 154 177 3,000 3,120 Climbing Atlanta Center
06:55AM 33.5419 -86.8053 250° West 181 208 4,100 3,000 Climbing Atlanta Center
06:56AM 33.4964 -86.7914 166° South 208 239 7,500 3,300 Climbing Atlanta Center
06:57AM 33.4542 -86.7228 126° Southeast 198 228 10,700 2,520 Climbing Atlanta Center
06:58AM 33.4097 -86.6442 124° Southeast 249 287 12,600 1,620 Climbing Atlanta Center
06:59AM 33.3556 -86.5481 124° Southeast 299 344 14,000 1,260 Climbing Atlanta Center
07:00AM 33.3089 -86.4722 126° Southeast 332 382 15,200 1,500 Climbing Atlanta Center
07:01AM 33.2486 -86.3539 121° Southeast 362 417 17,100 1,740 Climbing Atlanta Center
07:02AM 33.1878 -86.2531 126° Southeast 374 430 18,700 1,620 Climbing Atlanta Center
07:03AM 33.1314 -86.1450 122° Southeast 381 438 20,400 1,680 Climbing Atlanta Center
07:04AM 33.0664 -86.0342 125° Southeast 381 438 22,100 1,740 Climbing Atlanta Center
07:05AM 33.0075 -85.9264 123° Southeast 381 438 23,900 1,740 Climbing Atlanta Center
07:06AM 32.9464 -85.8236 125° Southeast 381 438 25,600 1,680 Climbing Atlanta Center
07:07AM 32.8853 -85.7183 125° Southeast 381 438 27,300 1,680 Climbing Atlanta Center
07:08AM 32.8261 -85.6111 123° Southeast 383 441 29,000 1,680 Climbing Atlanta Center
07:09AM 32.7647 -85.5061 125° Southeast 383 441 30,700 1,680 Climbing Atlanta Center
07:10AM 32.7033 -85.4014 125° Southeast 383 441 32,400 1,680 Climbing Atlanta Center
07:11AM 32.6419 -85.2969 125° Southeast 383 441 34,100 1,380 Climbing Atlanta Center
07:12AM 32.5761 -85.1900 126° Southeast 383 441 35,200 1,020 Climbing Atlanta Center
07:13AM 32.5144 -85.0808 124° Southeast 390 449 36,200 960 Climbing Atlanta Center
07:14AM 32.4444 -84.9667 126° Southeast 412 474 37,200 960 Climbing Atlanta Center
07:15AM 32.3806 -84.8506 123° Southeast 418 481 38,200 900 Climbing Atlanta Center
07:16AM 32.3228 -84.7517 125° Southeast 417 480 39,000 360 Climbing Atlanta Center
07:17AM 32.2483 -84.6306 126° Southeast 432 497 39,000  Level Atlanta Center
07:18AM 32.1758 -84.5025 124° Southeast 453 521 39,000  Level Atlanta Center
07:20AM 32.0544 -84.2972 125° Southeast 479 551 39,000  Level Jacksonville Center
07:21AM 31.9783 -84.1686 125° Southeast 479 551 39,000  Level Jacksonville Center
07:22AM 31.8875 -84.0622 135° Southeast 471 542 39,000  Level Jacksonville Center
07:23AM 31.7839 -83.9778 145° Southeast 451 519 39,000  Level Jacksonville Center
07:24AM 31.7031 -83.9083 144° Southeast 451 519 39,000  Level Jacksonville Center
07:25AM 31.5808 -83.8022 144° Southeast 457 526 39,000  Level Jacksonville Center
07:26AM 31.4728 -83.7183 146° Southeast 464 534 39,000  Level Jacksonville Center
07:27AM 31.3792 -83.6419 145° Southeast 464 534 39,000  Level Jacksonville Center
07:28AM 31.2753 -83.5539 144° Southeast 464 534 39,000  Level Jacksonville Center
07:29AM 31.1736 -83.4681 144° Southeast 464 534 39,000 -1,020 Level Jacksonville Center
07:30AM 31.0714 -83.3850 145° Southeast 458 527 37,000 -2,220 Descending Jacksonville Center
07:31AM 30.9694 -83.3019 145° Southeast 458 527 34,600 -2,400 Descending Jacksonville Center
07:32AM 30.8611 -83.2144 145° Southeast 452 520 32,300 -2,400 Descending Jacksonville Center
07:33AM 30.7675 -83.1367 144° Southeast 432 497 29,900 -2,400 Descending Jacksonville Center
07:34AM 30.6694 -83.0544 144° Southeast 432 497 27,500 -2,340 Descending Jacksonville Center
07:35AM 30.5714 -82.9769 146° Southeast 432 497 25,300 -1,800 Descending Jacksonville Center
07:36AM 30.4817 -82.9047 145° Southeast 420 483 24,000 -720 Descending Jacksonville Center
07:37AM 30.3958 -82.8347 145° Southeast 400 460 23,900 -660 Descending Jacksonville Center
07:38AM 30.3083 -82.7628 145° Southeast 394 453 22,700 -1,140 Descending Jacksonville Center
07:39AM 30.2058 -82.6883 148° Southeast 376 433 21,500 -1,080 Descending Jacksonville Center
07:39AM 30.1869 -82.6714 142° Southeast 375 432 21,300 -1,080 Descending Jacksonville Center
07:40AM 30.1347 -82.6261 143° Southeast 389 448 20,600 -1,080 Descending Jacksonville Center
07:40AM 30.0928 -82.5997 151° Southeast 371 427 20,100 -1,140 Descending Jacksonville Center
07:41AM 30.0511 -82.5614 141° Southeast 384 442 19,500 -1,140 Descending Jacksonville Center
07:41AM 30.0175 -82.5350 146° Southeast 375 432 19,100 -1,020 Descending Jacksonville Center
07:42AM 29.9736 -82.4944 141° Southeast 379 436 18,500 -1,140 Descending Jacksonville Center
07:42AM 29.9297 -82.4658 151° Southeast 371 427 18,000 -900 Descending Jacksonville Center
07:43AM 29.8900 -82.4278 140° Southeast 379 436 17,600 -900 Descending Jacksonville Center
07:43AM 29.8481 -82.3992 149° Southeast 364 419 17,100 -1,140 Descending Jacksonville Center
07:44AM 29.8039 -82.3636 145° Southeast 379 436 16,500 -1,020 Descending Jacksonville Center
07:44AM 29.7664 -82.3350 146° Southeast 364 419 16,100 -540 Descending Jacksonville Center
07:45AM 29.7203 -82.2969 144° Southeast 379 436 16,000 -120 Descending Jacksonville Center
07:45AM 29.6950 -82.2542 124° Southeast 375 432 16,000  Level Jacksonville Center
07:46AM 29.6864 -82.1872 98° East 353 406 16,000 -660 Level Jacksonville Center
07:46AM 29.6878 -82.1131 89° East 375 432 15,300 -1,140 Descending Jacksonville Center
07:47AM 29.6875 -82.0678 90° East 348 400 14,900 -1,140 Descending Jacksonville Center
07:47AM 29.6683 -82.0011 108° East 366 421 14,200 -1,200 Descending Jacksonville Center
07:48AM 29.6494 -81.9631 120° Southeast 348 400 13,700 -1,140 Descending Jacksonville Center
07:48AM 29.6175 -81.9036 122° Southeast 352 405 13,100 -1,140 Descending Jacksonville Center
07:49AM 29.6006 -81.8678 119° Southeast 343 395 12,600 -1,200 Descending Jacksonville Center
07:50AM 29.5667 -81.8061 122° Southeast 346 398 11,900 -1,140 Descending Jacksonville Center
07:51AM 29.5178 -81.7136 121° Southeast 339 390 10,800 -900 Descending Jacksonville Center
07:52AM 29.4711 -81.6236 121° Southeast 328 377 10,100 -420 Descending Jacksonville Center
07:53AM 29.4222 -81.5336 122° Southeast 335 386 10,000 -300 Descending Jacksonville Center
07:54AM 29.3772 -81.4436 120° Southeast 330 380 9,600 -1,020 Descending Jacksonville Center
07:55AM 29.3303 -81.3492 120° Southeast 323 372 8,000 -1,920 Descending Jacksonville Center
07:56AM 29.2589 -81.3169 159° South 272 313 5,800 -1,920 Descending Jacksonville Center
07:57AM 29.1897 -81.2917 162° South 245 282 4,100 -1,320 Descending Jacksonville Center
07:58AM 29.1289 -81.2642 158° South 225 259 3,200 -1,140 Descending Jacksonville Center
07:59AM 29.1217 -81.1978 97° East 208 239 1,900 -900 Descending Jacksonville Center
08:00AM 29.1442 -81.1500 62° Northeast 114 131 1,400 -540 Descending Jacksonville Center
08:01AM 29.1561 -81.1189 66° East 117 135 900 -540 Descending Jacksonville Center
08:03AM 29.1667 -81.0500 121° Southeast  Level FlightAware Approximate
08:10AM 29.1799 -81.0581 332° Northwest  Level Estimated
08:11AM 29.1799 -81.0581 121° Southeast  Level Estimated
08:12AM 29.1799 -81.0581 North  Level Estimated